sensor_id;sensor_type;location;lat;lon;timestamp;P1;durP1;ratioP1;P2;durP2;ratioP2
51326;SDS011;37412;52.836;6.362;2023-11-19T00:02:04;58.38;;;25.20;;
51326;SDS011;37412;52.836;6.362;2023-11-19T00:04:50;66.47;;;25.60;;
51326;SDS011;37412;52.836;6.362;2023-11-19T00:07:36;63.00;;;25.58;;
51326;SDS011;37412;52.836;6.362;2023-11-19T00:10:29;65.22;;;23.27;;
51326;SDS011;37412;52.836;6.362;2023-11-19T00:13:15;62.70;;;22.80;;
51326;SDS011;37412;52.836;6.362;2023-11-19T00:16:01;80.25;;;23.98;;
51326;SDS011;37412;52.836;6.362;2023-11-19T00:18:49;45.97;;;19.45;;
51326;SDS011;37412;52.836;6.362;2023-11-19T00:21:35;58.50;;;18.80;;
51326;SDS011;37412;52.836;6.362;2023-11-19T00:24:21;49.25;;;18.15;;
51326;SDS011;37412;52.836;6.362;2023-11-19T00:27:07;45.22;;;14.60;;
51326;SDS011;37412;52.836;6.362;2023-11-19T00:29:53;40.15;;;14.50;;
51326;SDS011;37412;52.836;6.362;2023-11-19T00:32:40;49.40;;;13.73;;
51326;SDS011;37412;52.836;6.362;2023-11-19T00:35:26;40.17;;;11.40;;
51326;SDS011;37412;52.836;6.362;2023-11-19T00:38:12;47.65;;;10.07;;
51326;SDS011;37412;52.836;6.362;2023-11-19T00:40:58;56.15;;;11.15;;
51326;SDS011;37412;52.836;6.362;2023-11-19T00:43:44;47.10;;;9.95;;
51326;SDS011;37412;52.836;6.362;2023-11-19T00:46:30;45.75;;;9.00;;
51326;SDS011;37412;52.836;6.362;2023-11-19T00:49:18;49.20;;;8.75;;
51326;SDS011;37412;52.836;6.362;2023-11-19T00:52:04;54.05;;;9.70;;
51326;SDS011;37412;52.836;6.362;2023-11-19T00:54:50;44.40;;;8.00;;
51326;SDS011;37412;52.836;6.362;2023-11-19T00:57:36;52.45;;;7.88;;
51326;SDS011;37412;52.836;6.362;2023-11-19T01:00:22;44.22;;;8.05;;
51326;SDS011;37412;52.836;6.362;2023-11-19T01:03:09;45.75;;;6.80;;
51326;SDS011;37412;52.836;6.362;2023-11-19T01:05:56;38.00;;;6.45;;
51326;SDS011;37412;52.836;6.362;2023-11-19T01:08:45;46.17;;;7.28;;
51326;SDS011;37412;52.836;6.362;2023-11-19T01:11:31;34.65;;;5.75;;
51326;SDS011;37412;52.836;6.362;2023-11-19T01:14:17;45.70;;;6.95;;
51326;SDS011;37412;52.836;6.362;2023-11-19T01:17:03;39.10;;;6.53;;
51326;SDS011;37412;52.836;6.362;2023-11-19T01:19:50;38.67;;;5.75;;
51326;SDS011;37412;52.836;6.362;2023-11-19T01:22:36;37.33;;;6.13;;
51326;SDS011;37412;52.836;6.362;2023-11-19T01:25:22;36.05;;;5.55;;
51326;SDS011;37412;52.836;6.362;2023-11-19T01:28:08;41.72;;;5.95;;
51326;SDS011;37412;52.836;6.362;2023-11-19T01:30:54;44.30;;;6.05;;
51326;SDS011;37412;52.836;6.362;2023-11-19T01:33:40;48.05;;;5.72;;
51326;SDS011;37412;52.836;6.362;2023-11-19T01:36:26;35.50;;;6.18;;
51326;SDS011;37412;52.836;6.362;2023-11-19T01:39:13;37.33;;;4.90;;
51326;SDS011;37412;52.836;6.362;2023-11-19T01:42:01;51.80;;;6.07;;
51326;SDS011;37412;52.836;6.362;2023-11-19T01:44:59;41.78;;;6.22;;
51326;SDS011;37412;52.836;6.362;2023-11-19T01:47:46;38.10;;;5.50;;
51326;SDS011;37412;52.836;6.362;2023-11-19T01:50:32;42.20;;;5.68;;
51326;SDS011;37412;52.836;6.362;2023-11-19T01:53:19;36.88;;;5.32;;
51326;SDS011;37412;52.836;6.362;2023-11-19T01:56:08;35.33;;;5.00;;
51326;SDS011;37412;52.836;6.362;2023-11-19T01:58:57;36.33;;;5.28;;
51326;SDS011;37412;52.836;6.362;2023-11-19T02:01:43;55.90;;;6.97;;
51326;SDS011;37412;52.836;6.362;2023-11-19T02:04:29;43.35;;;5.53;;
51326;SDS011;37412;52.836;6.362;2023-11-19T02:07:15;52.33;;;5.80;;
51326;SDS011;37412;52.836;6.362;2023-11-19T02:10:03;43.20;;;6.18;;
51326;SDS011;37412;52.836;6.362;2023-11-19T02:12:50;39.13;;;5.45;;
51326;SDS011;37412;52.836;6.362;2023-11-19T02:15:36;45.15;;;6.30;;
51326;SDS011;37412;52.836;6.362;2023-11-19T02:18:26;34.33;;;5.05;;
51326;SDS011;37412;52.836;6.362;2023-11-19T02:21:15;46.45;;;5.60;;
51326;SDS011;37412;52.836;6.362;2023-11-19T02:24:03;30.77;;;4.60;;
51326;SDS011;37412;52.836;6.362;2023-11-19T02:27:02;41.35;;;5.72;;
51326;SDS011;37412;52.836;6.362;2023-11-19T02:29:52;37.33;;;5.68;;
51326;SDS011;37412;52.836;6.362;2023-11-19T02:32:39;42.00;;;6.25;;
51326;SDS011;37412;52.836;6.362;2023-11-19T02:35:27;34.72;;;4.55;;
51326;SDS011;37412;52.836;6.362;2023-11-19T02:38:13;39.03;;;5.10;;
51326;SDS011;37412;52.836;6.362;2023-11-19T02:40:59;37.63;;;5.20;;
51326;SDS011;37412;52.836;6.362;2023-11-19T02:43:47;34.95;;;4.88;;
51326;SDS011;37412;52.836;6.362;2023-11-19T02:46:34;40.10;;;5.20;;
51326;SDS011;37412;52.836;6.362;2023-11-19T02:49:19;35.78;;;5.43;;
51326;SDS011;37412;52.836;6.362;2023-11-19T02:52:06;38.17;;;4.75;;
51326;SDS011;37412;52.836;6.362;2023-11-19T02:54:52;31.50;;;4.97;;
51326;SDS011;37412;52.836;6.362;2023-11-19T02:57:38;27.58;;;4.95;;
51326;SDS011;37412;52.836;6.362;2023-11-19T03:00:31;38.53;;;5.45;;
51326;SDS011;37412;52.836;6.362;2023-11-19T03:03:21;41.97;;;4.88;;
51326;SDS011;37412;52.836;6.362;2023-11-19T03:06:08;35.88;;;5.70;;
51326;SDS011;37412;52.836;6.362;2023-11-19T03:08:58;39.17;;;5.32;;
51326;SDS011;37412;52.836;6.362;2023-11-19T03:11:44;39.22;;;5.32;;
51326;SDS011;37412;52.836;6.362;2023-11-19T03:14:30;43.72;;;5.82;;
51326;SDS011;37412;52.836;6.362;2023-11-19T03:17:18;44.78;;;4.90;;
51326;SDS011;37412;52.836;6.362;2023-11-19T03:20:08;37.30;;;4.90;;
51326;SDS011;37412;52.836;6.362;2023-11-19T03:22:55;43.15;;;6.22;;
51326;SDS011;37412;52.836;6.362;2023-11-19T03:25:44;36.35;;;5.78;;
51326;SDS011;37412;52.836;6.362;2023-11-19T03:28:29;39.53;;;5.85;;
51326;SDS011;37412;52.836;6.362;2023-11-19T03:31:16;47.42;;;5.10;;
51326;SDS011;37412;52.836;6.362;2023-11-19T03:34:05;34.97;;;5.78;;
51326;SDS011;37412;52.836;6.362;2023-11-19T03:36:51;46.40;;;7.20;;
51326;SDS011;37412;52.836;6.362;2023-11-19T03:39:37;38.90;;;6.05;;
51326;SDS011;37412;52.836;6.362;2023-11-19T03:42:23;38.72;;;6.00;;
51326;SDS011;37412;52.836;6.362;2023-11-19T03:45:09;38.67;;;5.55;;
51326;SDS011;37412;52.836;6.362;2023-11-19T03:47:55;44.25;;;6.20;;
51326;SDS011;37412;52.836;6.362;2023-11-19T03:50:44;42.80;;;5.50;;
51326;SDS011;37412;52.836;6.362;2023-11-19T03:53:30;40.08;;;6.32;;
51326;SDS011;37412;52.836;6.362;2023-11-19T03:56:16;42.47;;;6.60;;
51326;SDS011;37412;52.836;6.362;2023-11-19T03:59:02;47.80;;;6.78;;
51326;SDS011;37412;52.836;6.362;2023-11-19T04:01:48;40.72;;;7.30;;
51326;SDS011;37412;52.836;6.362;2023-11-19T04:04:34;48.05;;;7.47;;
51326;SDS011;37412;52.836;6.362;2023-11-19T04:07:20;39.15;;;6.00;;
51326;SDS011;37412;52.836;6.362;2023-11-19T04:10:06;41.75;;;6.97;;
51326;SDS011;37412;52.836;6.362;2023-11-19T04:12:52;43.20;;;5.97;;
51326;SDS011;37412;52.836;6.362;2023-11-19T04:15:38;43.70;;;6.53;;
51326;SDS011;37412;52.836;6.362;2023-11-19T04:18:24;49.83;;;6.50;;
51326;SDS011;37412;52.836;6.362;2023-11-19T04:21:10;41.08;;;6.78;;
51326;SDS011;37412;52.836;6.362;2023-11-19T04:23:56;45.33;;;7.80;;
51326;SDS011;37412;52.836;6.362;2023-11-19T04:26:45;48.78;;;6.47;;
51326;SDS011;37412;52.836;6.362;2023-11-19T04:29:32;43.60;;;6.75;;
51326;SDS011;37412;52.836;6.362;2023-11-19T04:32:17;34.65;;;6.80;;
51326;SDS011;37412;52.836;6.362;2023-11-19T04:35:04;42.70;;;5.88;;
51326;SDS011;37412;52.836;6.362;2023-11-19T04:37:53;44.45;;;6.65;;
51326;SDS011;37412;52.836;6.362;2023-11-19T04:40:42;53.67;;;6.32;;
51326;SDS011;37412;52.836;6.362;2023-11-19T04:43:29;39.63;;;6.78;;
51326;SDS011;37412;52.836;6.362;2023-11-19T04:46:15;44.72;;;7.32;;
51326;SDS011;37412;52.836;6.362;2023-11-19T04:49:01;43.88;;;6.65;;
51326;SDS011;37412;52.836;6.362;2023-11-19T04:51:48;51.17;;;8.00;;
51326;SDS011;37412;52.836;6.362;2023-11-19T04:54:34;41.17;;;7.13;;
51326;SDS011;37412;52.836;6.362;2023-11-19T04:57:20;52.58;;;8.27;;
51326;SDS011;37412;52.836;6.362;2023-11-19T05:00:06;51.75;;;7.82;;
51326;SDS011;37412;52.836;6.362;2023-11-19T05:02:53;50.47;;;6.60;;
51326;SDS011;37412;52.836;6.362;2023-11-19T05:05:39;44.47;;;7.05;;
51326;SDS011;37412;52.836;6.362;2023-11-19T05:08:25;51.17;;;7.15;;
51326;SDS011;37412;52.836;6.362;2023-11-19T05:11:11;49.35;;;7.13;;
51326;SDS011;37412;52.836;6.362;2023-11-19T05:16:49;47.25;;;7.57;;
51326;SDS011;37412;52.836;6.362;2023-11-19T05:19:35;40.97;;;6.40;;
51326;SDS011;37412;52.836;6.362;2023-11-19T05:22:21;48.85;;;7.38;;
51326;SDS011;37412;52.836;6.362;2023-11-19T05:25:07;44.70;;;7.43;;
51326;SDS011;37412;52.836;6.362;2023-11-19T05:27:54;45.90;;;6.78;;
51326;SDS011;37412;52.836;6.362;2023-11-19T05:30:40;49.45;;;6.95;;
51326;SDS011;37412;52.836;6.362;2023-11-19T05:33:26;52.70;;;7.35;;
51326;SDS011;37412;52.836;6.362;2023-11-19T05:36:12;44.28;;;6.15;;
51326;SDS011;37412;52.836;6.362;2023-11-19T05:38:58;42.20;;;6.50;;
51326;SDS011;37412;52.836;6.362;2023-11-19T05:41:44;39.83;;;6.80;;
51326;SDS011;37412;52.836;6.362;2023-11-19T05:44:30;47.22;;;5.97;;
51326;SDS011;37412;52.836;6.362;2023-11-19T05:47:16;49.42;;;7.72;;
51326;SDS011;37412;52.836;6.362;2023-11-19T05:50:02;42.33;;;6.82;;
51326;SDS011;37412;52.836;6.362;2023-11-19T05:52:49;44.63;;;6.63;;
51326;SDS011;37412;52.836;6.362;2023-11-19T05:55:36;50.08;;;6.85;;
51326;SDS011;37412;52.836;6.362;2023-11-19T05:58:30;52.65;;;8.48;;
51326;SDS011;37412;52.836;6.362;2023-11-19T06:01:17;45.72;;;6.10;;
51326;SDS011;37412;52.836;6.362;2023-11-19T06:04:03;43.58;;;6.63;;
51326;SDS011;37412;52.836;6.362;2023-11-19T06:06:49;43.72;;;6.40;;
51326;SDS011;37412;52.836;6.362;2023-11-19T06:09:35;45.00;;;6.70;;
51326;SDS011;37412;52.836;6.362;2023-11-19T06:12:21;48.42;;;7.03;;
51326;SDS011;37412;52.836;6.362;2023-11-19T06:15:07;46.83;;;7.05;;
51326;SDS011;37412;52.836;6.362;2023-11-19T06:17:54;44.72;;;6.82;;
51326;SDS011;37412;52.836;6.362;2023-11-19T06:20:40;45.42;;;6.30;;
51326;SDS011;37412;52.836;6.362;2023-11-19T06:23:26;38.67;;;6.28;;
51326;SDS011;37412;52.836;6.362;2023-11-19T06:26:12;46.10;;;6.70;;
51326;SDS011;37412;52.836;6.362;2023-11-19T06:28:59;36.20;;;7.03;;
51326;SDS011;37412;52.836;6.362;2023-11-19T06:31:45;39.92;;;6.03;;
51326;SDS011;37412;52.836;6.362;2023-11-19T06:34:34;50.00;;;6.65;;
51326;SDS011;37412;52.836;6.362;2023-11-19T06:37:20;48.25;;;6.20;;
51326;SDS011;37412;52.836;6.362;2023-11-19T06:40:06;45.92;;;6.97;;
51326;SDS011;37412;52.836;6.362;2023-11-19T06:42:54;41.22;;;6.65;;
51326;SDS011;37412;52.836;6.362;2023-11-19T06:45:40;37.92;;;5.78;;
51326;SDS011;37412;52.836;6.362;2023-11-19T06:48:26;42.13;;;6.15;;
51326;SDS011;37412;52.836;6.362;2023-11-19T06:51:12;50.15;;;7.20;;
51326;SDS011;37412;52.836;6.362;2023-11-19T06:53:58;37.75;;;6.45;;
51326;SDS011;37412;52.836;6.362;2023-11-19T06:56:44;41.80;;;6.85;;
51326;SDS011;37412;52.836;6.362;2023-11-19T06:59:30;44.80;;;7.22;;
51326;SDS011;37412;52.836;6.362;2023-11-19T07:02:16;47.10;;;6.68;;
51326;SDS011;37412;52.836;6.362;2023-11-19T07:05:02;42.65;;;6.85;;
51326;SDS011;37412;52.836;6.362;2023-11-19T07:07:50;43.80;;;6.13;;
51326;SDS011;37412;52.836;6.362;2023-11-19T07:10:35;44.40;;;6.43;;
51326;SDS011;37412;52.836;6.362;2023-11-19T07:13:21;39.28;;;5.82;;
51326;SDS011;37412;52.836;6.362;2023-11-19T07:16:07;34.50;;;6.28;;
51326;SDS011;37412;52.836;6.362;2023-11-19T07:18:56;36.60;;;6.60;;
51326;SDS011;37412;52.836;6.362;2023-11-19T07:21:44;41.13;;;6.28;;
51326;SDS011;37412;52.836;6.362;2023-11-19T07:24:30;39.20;;;6.45;;
51326;SDS011;37412;52.836;6.362;2023-11-19T07:27:16;37.03;;;5.95;;
51326;SDS011;37412;52.836;6.362;2023-11-19T07:30:03;51.35;;;7.60;;
51326;SDS011;37412;52.836;6.362;2023-11-19T07:32:50;48.13;;;6.95;;
51326;SDS011;37412;52.836;6.362;2023-11-19T07:35:36;68.80;;;22.38;;
51326;SDS011;37412;52.836;6.362;2023-11-19T07:38:22;49.97;;;9.23;;
51326;SDS011;37412;52.836;6.362;2023-11-19T07:41:08;41.50;;;9.88;;
51326;SDS011;37412;52.836;6.362;2023-11-19T07:43:58;48.83;;;16.77;;
51326;SDS011;37412;52.836;6.362;2023-11-19T07:46:44;53.88;;;12.73;;
51326;SDS011;37412;52.836;6.362;2023-11-19T07:49:30;70.28;;;22.77;;
51326;SDS011;37412;52.836;6.362;2023-11-19T07:52:16;49.97;;;12.52;;
51326;SDS011;37412;52.836;6.362;2023-11-19T07:55:02;42.33;;;10.63;;
51326;SDS011;37412;52.836;6.362;2023-11-19T07:57:48;32.33;;;5.53;;
51326;SDS011;37412;52.836;6.362;2023-11-19T08:00:34;44.10;;;6.35;;
51326;SDS011;37412;52.836;6.362;2023-11-19T08:03:20;51.28;;;6.90;;
51326;SDS011;37412;52.836;6.362;2023-11-19T08:06:07;44.42;;;6.72;;
51326;SDS011;37412;52.836;6.362;2023-11-19T08:08:53;43.70;;;6.53;;
51326;SDS011;37412;52.836;6.362;2023-11-19T08:11:40;33.90;;;4.90;;
51326;SDS011;37412;52.836;6.362;2023-11-19T08:14:26;44.88;;;9.73;;
51326;SDS011;37412;52.836;6.362;2023-11-19T08:17:13;32.47;;;6.50;;
51326;SDS011;37412;52.836;6.362;2023-11-19T08:19:59;46.45;;;6.53;;
51326;SDS011;37412;52.836;6.362;2023-11-19T08:22:45;39.70;;;5.85;;
51326;SDS011;37412;52.836;6.362;2023-11-19T08:25:31;44.22;;;7.00;;
51326;SDS011;37412;52.836;6.362;2023-11-19T08:28:18;41.13;;;5.55;;
51326;SDS011;37412;52.836;6.362;2023-11-19T08:31:04;44.50;;;5.97;;
51326;SDS011;37412;52.836;6.362;2023-11-19T08:33:50;39.22;;;6.25;;
51326;SDS011;37412;52.836;6.362;2023-11-19T08:36:36;49.83;;;6.38;;
51326;SDS011;37412;52.836;6.362;2023-11-19T08:39:22;49.42;;;7.28;;
51326;SDS011;37412;52.836;6.362;2023-11-19T08:42:09;39.53;;;4.90;;
51326;SDS011;37412;52.836;6.362;2023-11-19T08:44:55;30.17;;;5.68;;
51326;SDS011;37412;52.836;6.362;2023-11-19T08:47:44;31.42;;;5.97;;
51326;SDS011;37412;52.836;6.362;2023-11-19T08:50:30;38.40;;;6.80;;
51326;SDS011;37412;52.836;6.362;2023-11-19T08:53:16;52.17;;;6.00;;
51326;SDS011;37412;52.836;6.362;2023-11-19T08:56:02;37.42;;;6.25;;
51326;SDS011;37412;52.836;6.362;2023-11-19T08:58:49;40.10;;;6.28;;
51326;SDS011;37412;52.836;6.362;2023-11-19T09:01:34;35.05;;;6.80;;
51326;SDS011;37412;52.836;6.362;2023-11-19T09:04:21;36.47;;;5.97;;
51326;SDS011;37412;52.836;6.362;2023-11-19T09:07:08;40.28;;;5.78;;
51326;SDS011;37412;52.836;6.362;2023-11-19T09:09:55;35.72;;;5.85;;
51326;SDS011;37412;52.836;6.362;2023-11-19T09:12:40;38.55;;;5.43;;
51326;SDS011;37412;52.836;6.362;2023-11-19T09:15:26;31.60;;;4.57;;
51326;SDS011;37412;52.836;6.362;2023-11-19T09:18:12;44.65;;;6.65;;
51326;SDS011;37412;52.836;6.362;2023-11-19T09:20:58;38.42;;;5.78;;
51326;SDS011;37412;52.836;6.362;2023-11-19T09:23:44;33.67;;;5.50;;
51326;SDS011;37412;52.836;6.362;2023-11-19T09:26:32;39.75;;;6.53;;
51326;SDS011;37412;52.836;6.362;2023-11-19T09:29:18;43.83;;;6.53;;
51326;SDS011;37412;52.836;6.362;2023-11-19T09:32:05;43.58;;;6.93;;
51326;SDS011;37412;52.836;6.362;2023-11-19T09:34:51;37.67;;;5.63;;
51326;SDS011;37412;52.836;6.362;2023-11-19T09:37:37;42.10;;;6.00;;
51326;SDS011;37412;52.836;6.362;2023-11-19T09:40:23;34.50;;;5.90;;
51326;SDS011;37412;52.836;6.362;2023-11-19T09:43:09;34.63;;;5.10;;
51326;SDS011;37412;52.836;6.362;2023-11-19T09:45:56;30.25;;;5.03;;
51326;SDS011;37412;52.836;6.362;2023-11-19T09:48:43;39.58;;;7.35;;
51326;SDS011;37412;52.836;6.362;2023-11-19T09:51:30;36.30;;;5.38;;
51326;SDS011;37412;52.836;6.362;2023-11-19T09:54:16;37.17;;;6.20;;
51326;SDS011;37412;52.836;6.362;2023-11-19T09:57:02;42.78;;;5.70;;
51326;SDS011;37412;52.836;6.362;2023-11-19T09:59:50;37.83;;;5.28;;
51326;SDS011;37412;52.836;6.362;2023-11-19T10:02:39;52.83;;;5.93;;
51326;SDS011;37412;52.836;6.362;2023-11-19T10:05:25;35.22;;;5.53;;
51326;SDS011;37412;52.836;6.362;2023-11-19T10:08:11;37.45;;;6.03;;
51326;SDS011;37412;52.836;6.362;2023-11-19T10:10:57;47.03;;;6.60;;
51326;SDS011;37412;52.836;6.362;2023-11-19T10:13:44;31.85;;;5.13;;
51326;SDS011;37412;52.836;6.362;2023-11-19T10:16:34;32.25;;;4.93;;
51326;SDS011;37412;52.836;6.362;2023-11-19T10:19:20;38.85;;;5.85;;
51326;SDS011;37412;52.836;6.362;2023-11-19T10:22:06;45.63;;;5.53;;
51326;SDS011;37412;52.836;6.362;2023-11-19T10:24:53;37.78;;;6.18;;
51326;SDS011;37412;52.836;6.362;2023-11-19T10:27:38;41.33;;;6.28;;
51326;SDS011;37412;52.836;6.362;2023-11-19T10:30:25;35.75;;;5.78;;
51326;SDS011;37412;52.836;6.362;2023-11-19T10:33:14;37.38;;;5.63;;
51326;SDS011;37412;52.836;6.362;2023-11-19T10:36:05;33.40;;;6.82;;
51326;SDS011;37412;52.836;6.362;2023-11-19T10:38:52;35.95;;;6.10;;
51326;SDS011;37412;52.836;6.362;2023-11-19T10:41:39;39.72;;;10.23;;
51326;SDS011;37412;52.836;6.362;2023-11-19T10:44:32;33.15;;;5.93;;
51326;SDS011;37412;52.836;6.362;2023-11-19T10:47:22;35.28;;;6.13;;
51326;SDS011;37412;52.836;6.362;2023-11-19T10:50:09;42.58;;;6.00;;
51326;SDS011;37412;52.836;6.362;2023-11-19T10:52:56;40.53;;;5.60;;
51326;SDS011;37412;52.836;6.362;2023-11-19T10:55:47;31.67;;;5.90;;
51326;SDS011;37412;52.836;6.362;2023-11-19T10:58:33;37.90;;;5.80;;
51326;SDS011;37412;52.836;6.362;2023-11-19T11:01:20;35.17;;;6.07;;
51326;SDS011;37412;52.836;6.362;2023-11-19T11:04:15;42.35;;;5.70;;
51326;SDS011;37412;52.836;6.362;2023-11-19T11:07:08;43.20;;;6.13;;
51326;SDS011;37412;52.836;6.362;2023-11-19T11:09:55;37.03;;;5.45;;
51326;SDS011;37412;52.836;6.362;2023-11-19T11:12:42;38.97;;;5.78;;
51326;SDS011;37412;52.836;6.362;2023-11-19T11:15:29;39.83;;;6.32;;
51326;SDS011;37412;52.836;6.362;2023-11-19T11:18:16;29.10;;;5.00;;
51326;SDS011;37412;52.836;6.362;2023-11-19T11:21:05;36.63;;;6.63;;
51326;SDS011;37412;52.836;6.362;2023-11-19T11:24:11;31.52;;;6.93;;
51326;SDS011;37412;52.836;6.362;2023-11-19T11:30:31;43.95;;;6.55;;
51326;SDS011;37412;52.836;6.362;2023-11-19T11:33:34;35.60;;;5.10;;
51326;SDS011;37412;52.836;6.362;2023-11-19T11:36:28;33.63;;;6.10;;
51326;SDS011;37412;52.836;6.362;2023-11-19T11:39:22;33.55;;;5.43;;
51326;SDS011;37412;52.836;6.362;2023-11-19T11:50:49;35.92;;;5.43;;
51326;SDS011;37412;52.836;6.362;2023-11-19T11:53:39;42.78;;;5.93;;
51326;SDS011;37412;52.836;6.362;2023-11-19T11:56:32;42.58;;;7.18;;
51326;SDS011;37412;52.836;6.362;2023-11-19T11:59:19;34.08;;;6.97;;
51326;SDS011;37412;52.836;6.362;2023-11-19T12:02:05;33.95;;;5.57;;
51326;SDS011;37412;52.836;6.362;2023-11-19T12:04:54;38.30;;;6.22;;
51326;SDS011;37412;52.836;6.362;2023-11-19T12:07:40;35.35;;;5.85;;
51326;SDS011;37412;52.836;6.362;2023-11-19T12:10:28;36.65;;;5.50;;
51326;SDS011;37412;52.836;6.362;2023-11-19T12:13:17;36.53;;;6.13;;
51326;SDS011;37412;52.836;6.362;2023-11-19T12:18:53;32.53;;;5.07;;
51326;SDS011;37412;52.836;6.362;2023-11-19T12:21:43;32.70;;;5.40;;
51326;SDS011;37412;52.836;6.362;2023-11-19T12:24:29;38.65;;;5.60;;
51326;SDS011;37412;52.836;6.362;2023-11-19T12:27:15;33.85;;;5.63;;
51326;SDS011;37412;52.836;6.362;2023-11-19T12:30:05;30.77;;;6.03;;
51326;SDS011;37412;52.836;6.362;2023-11-19T12:32:51;44.60;;;5.63;;
51326;SDS011;37412;52.836;6.362;2023-11-19T12:35:41;40.38;;;6.10;;
51326;SDS011;37412;52.836;6.362;2023-11-19T12:38:33;35.20;;;6.47;;
51326;SDS011;37412;52.836;6.362;2023-11-19T12:41:21;32.75;;;5.25;;
51326;SDS011;37412;52.836;6.362;2023-11-19T12:44:09;36.05;;;5.65;;
51326;SDS011;37412;52.836;6.362;2023-11-19T12:49:55;37.70;;;4.85;;
51326;SDS011;37412;52.836;6.362;2023-11-19T12:52:42;34.35;;;5.30;;
51326;SDS011;37412;52.836;6.362;2023-11-19T12:55:28;29.35;;;4.75;;
51326;SDS011;37412;52.836;6.362;2023-11-19T12:58:30;38.60;;;5.63;;
51326;SDS011;37412;52.836;6.362;2023-11-19T13:01:18;36.17;;;5.43;;
51326;SDS011;37412;52.836;6.362;2023-11-19T13:04:17;29.40;;;4.40;;
51326;SDS011;37412;52.836;6.362;2023-11-19T13:07:03;39.42;;;6.05;;
51326;SDS011;37412;52.836;6.362;2023-11-19T13:09:50;29.42;;;4.78;;
51326;SDS011;37412;52.836;6.362;2023-11-19T13:12:39;31.48;;;4.38;;
51326;SDS011;37412;52.836;6.362;2023-11-19T13:15:25;35.78;;;6.32;;
51326;SDS011;37412;52.836;6.362;2023-11-19T13:18:11;43.55;;;5.80;;
51326;SDS011;37412;52.836;6.362;2023-11-19T13:21:08;31.33;;;5.05;;
51326;SDS011;37412;52.836;6.362;2023-11-19T13:23:54;31.77;;;5.05;;
51326;SDS011;37412;52.836;6.362;2023-11-19T13:26:41;33.55;;;5.93;;
51326;SDS011;37412;52.836;6.362;2023-11-19T13:29:27;35.10;;;5.85;;
51326;SDS011;37412;52.836;6.362;2023-11-19T13:32:13;31.40;;;4.82;;
51326;SDS011;37412;52.836;6.362;2023-11-19T13:34:59;33.83;;;5.53;;
51326;SDS011;37412;52.836;6.362;2023-11-19T13:37:46;30.88;;;5.05;;
51326;SDS011;37412;52.836;6.362;2023-11-19T13:40:32;33.03;;;5.10;;
51326;SDS011;37412;52.836;6.362;2023-11-19T13:43:18;25.27;;;4.82;;
51326;SDS011;37412;52.836;6.362;2023-11-19T13:46:04;32.20;;;5.47;;
51326;SDS011;37412;52.836;6.362;2023-11-19T13:48:53;25.33;;;4.47;;
51326;SDS011;37412;52.836;6.362;2023-11-19T13:51:40;26.25;;;4.47;;
51326;SDS011;37412;52.836;6.362;2023-11-19T13:54:26;33.67;;;5.05;;
51326;SDS011;37412;52.836;6.362;2023-11-19T13:57:11;29.15;;;5.32;;
51326;SDS011;37412;52.836;6.362;2023-11-19T14:00:07;33.53;;;5.18;;
51326;SDS011;37412;52.836;6.362;2023-11-19T14:03:04;26.75;;;4.78;;
51326;SDS011;37412;52.836;6.362;2023-11-19T14:05:50;33.55;;;3.97;;
51326;SDS011;37412;52.836;6.362;2023-11-19T14:08:37;28.85;;;5.13;;
51326;SDS011;37412;52.836;6.362;2023-11-19T14:11:23;35.70;;;5.25;;
51326;SDS011;37412;52.836;6.362;2023-11-19T14:14:09;30.63;;;4.63;;
51326;SDS011;37412;52.836;6.362;2023-11-19T14:16:55;30.17;;;4.82;;
51326;SDS011;37412;52.836;6.362;2023-11-19T14:19:42;31.80;;;5.22;;
51326;SDS011;37412;52.836;6.362;2023-11-19T14:22:28;41.13;;;6.50;;
51326;SDS011;37412;52.836;6.362;2023-11-19T14:25:15;38.42;;;5.25;;
51326;SDS011;37412;52.836;6.362;2023-11-19T14:28:02;31.10;;;4.78;;
51326;SDS011;37412;52.836;6.362;2023-11-19T14:30:48;30.98;;;4.32;;
51326;SDS011;37412;52.836;6.362;2023-11-19T14:33:39;33.53;;;4.50;;
51326;SDS011;37412;52.836;6.362;2023-11-19T14:36:26;33.58;;;4.82;;
51326;SDS011;37412;52.836;6.362;2023-11-19T14:39:11;29.70;;;5.90;;
51326;SDS011;37412;52.836;6.362;2023-11-19T14:41:57;30.10;;;4.43;;
51326;SDS011;37412;52.836;6.362;2023-11-19T14:44:49;36.97;;;4.72;;
51326;SDS011;37412;52.836;6.362;2023-11-19T14:47:36;34.00;;;4.13;;
51326;SDS011;37412;52.836;6.362;2023-11-19T14:50:21;34.78;;;4.75;;
51326;SDS011;37412;52.836;6.362;2023-11-19T14:53:07;37.42;;;4.97;;
51326;SDS011;37412;52.836;6.362;2023-11-19T14:55:53;32.08;;;5.20;;
51326;SDS011;37412;52.836;6.362;2023-11-19T14:58:40;38.53;;;6.65;;
51326;SDS011;37412;52.836;6.362;2023-11-19T15:01:26;30.63;;;4.97;;
51326;SDS011;37412;52.836;6.362;2023-11-19T15:04:13;36.83;;;6.03;;
51326;SDS011;37412;52.836;6.362;2023-11-19T15:07:01;34.53;;;5.57;;
51326;SDS011;37412;52.836;6.362;2023-11-19T15:09:48;33.28;;;5.47;;
51326;SDS011;37412;52.836;6.362;2023-11-19T15:12:34;30.25;;;5.03;;
51326;SDS011;37412;52.836;6.362;2023-11-19T15:15:20;34.97;;;5.25;;
51326;SDS011;37412;52.836;6.362;2023-11-19T15:18:07;26.10;;;4.82;;
51326;SDS011;37412;52.836;6.362;2023-11-19T15:20:55;35.50;;;4.55;;
51326;SDS011;37412;52.836;6.362;2023-11-19T15:23:40;35.03;;;5.07;;
51326;SDS011;37412;52.836;6.362;2023-11-19T15:26:26;32.83;;;5.18;;
51326;SDS011;37412;52.836;6.362;2023-11-19T15:29:12;40.25;;;5.45;;
51326;SDS011;37412;52.836;6.362;2023-11-19T15:31:59;38.03;;;4.70;;
51326;SDS011;37412;52.836;6.362;2023-11-19T15:34:45;34.28;;;4.90;;
51326;SDS011;37412;52.836;6.362;2023-11-19T15:37:31;42.35;;;12.98;;
51326;SDS011;37412;52.836;6.362;2023-11-19T15:40:16;30.88;;;6.50;;
51326;SDS011;37412;52.836;6.362;2023-11-19T15:43:04;22.15;;;5.95;;
51326;SDS011;37412;52.836;6.362;2023-11-19T15:45:51;32.08;;;6.25;;
51326;SDS011;37412;52.836;6.362;2023-11-19T15:48:37;33.80;;;5.18;;
51326;SDS011;37412;52.836;6.362;2023-11-19T15:51:23;28.58;;;5.47;;
51326;SDS011;37412;52.836;6.362;2023-11-19T15:54:09;28.15;;;4.70;;
51326;SDS011;37412;52.836;6.362;2023-11-19T15:56:55;23.90;;;5.05;;
51326;SDS011;37412;52.836;6.362;2023-11-19T15:59:41;24.33;;;4.43;;
51326;SDS011;37412;52.836;6.362;2023-11-19T16:02:27;38.75;;;4.68;;
51326;SDS011;37412;52.836;6.362;2023-11-19T16:05:13;34.45;;;5.82;;
51326;SDS011;37412;52.836;6.362;2023-11-19T16:07:59;27.60;;;4.72;;
51326;SDS011;37412;52.836;6.362;2023-11-19T16:10:45;27.73;;;4.45;;
51326;SDS011;37412;52.836;6.362;2023-11-19T16:13:32;35.60;;;5.43;;
51326;SDS011;37412;52.836;6.362;2023-11-19T16:16:18;35.30;;;5.28;;
51326;SDS011;37412;52.836;6.362;2023-11-19T16:19:04;26.25;;;4.10;;
51326;SDS011;37412;52.836;6.362;2023-11-19T16:21:51;33.58;;;5.07;;
51326;SDS011;37412;52.836;6.362;2023-11-19T16:24:37;29.67;;;4.57;;
51326;SDS011;37412;52.836;6.362;2023-11-19T16:27:23;31.10;;;4.70;;
51326;SDS011;37412;52.836;6.362;2023-11-19T16:30:10;31.30;;;5.68;;
51326;SDS011;37412;52.836;6.362;2023-11-19T16:32:59;35.45;;;5.25;;
51326;SDS011;37412;52.836;6.362;2023-11-19T16:35:45;40.58;;;6.35;;
51326;SDS011;37412;52.836;6.362;2023-11-19T16:38:31;37.42;;;5.45;;
51326;SDS011;37412;52.836;6.362;2023-11-19T16:41:18;38.35;;;4.60;;
51326;SDS011;37412;52.836;6.362;2023-11-19T16:44:08;36.85;;;5.45;;
51326;SDS011;37412;52.836;6.362;2023-11-19T16:46:54;40.35;;;5.32;;
51326;SDS011;37412;52.836;6.362;2023-11-19T16:49:41;34.28;;;5.60;;
51326;SDS011;37412;52.836;6.362;2023-11-19T16:52:27;40.63;;;6.65;;